Time;durP1;ratioP1;P1;durP2;ratioP2;P2;SDS_P1;SDS_P2;PMS_P1;PMS_P2;Temp;Humidity;BMP_temperature;BMP_pressure;BME280_temperature;BME280_humidity;BME280_pressure;Samples;Min_cycle;Max_cycle;Signal;HPM_P1;HPM_P2
2022/01/03 00:00:31;;;;;;;5.55;2.35;;;10.80;99.90;;;;;;2603428;54;20774;31
2022/01/03 00:03:09;;;;;;;4.72;2.55;;;10.90;99.90;;;;;;2603204;54;20837;31
2022/01/03 00:05:55;;;;;;;4.27;2.40;;;10.80;99.90;;;;;;2603173;54;20096;31
2022/01/03 00:08:36;;;;;;;7.47;2.85;;;10.80;99.90;;;;;;2603226;54;20038;31
2022/01/03 00:11:19;;;;;;;4.85;2.20;;;10.70;99.90;;;;;;2621557;46;20026;31
2022/01/03 00:13:55;;;;;;;5.05;2.90;;;10.80;99.90;;;;;;2621558;46;20085;31
2022/01/03 00:16:32;;;;;;;5.70;2.58;;;10.80;99.90;;;;;;2603428;54;20065;31
2022/01/03 00:19:08;;;;;;;4.60;2.40;;;10.80;99.90;;;;;;2604026;54;20105;31
2022/01/03 00:22:07;;;;;;;5.93;2.40;;;10.70;99.90;;;;;;2603887;54;20049;31
2022/01/03 00:24:45;;;;;;;6.45;2.30;;;10.70;99.90;;;;;;2604001;54;19942;31
2022/01/03 00:27:26;;;;;;;3.85;2.45;;;10.70;99.90;;;;;;2622104;46;20034;31
2022/01/03 00:30:05;;;;;;;5.78;2.75;;;10.70;99.90;;;;;;2603913;54;20101;31
2022/01/03 00:35:12;;;;;;;5.37;2.40;;;10.70;99.90;;;;;;2619671;46;20236;31
2022/01/03 00:37:50;;;;;;;4.57;1.90;;;10.70;99.90;;;;;;2603905;54;20034;31
2022/01/03 00:40:32;;;;;;;3.88;2.80;;;10.60;99.90;;;;;;2603743;54;20034;31
2022/01/03 00:43:16;;;;;;;5.40;2.38;;;10.60;99.90;;;;;;2603573;54;20930;31
2022/01/03 00:45:50;;;;;;;5.93;2.60;;;10.70;99.90;;;;;;2603883;54;20065;31
2022/01/03 00:48:28;;;;;;;3.72;2.30;;;10.60;99.90;;;;;;2602999;54;20068;31
2022/01/03 00:51:10;;;;;;;4.35;2.20;;;10.50;99.90;;;;;;2603785;54;20860;31
2022/01/03 00:53:47;;;;;;;5.85;2.20;;;10.60;99.90;;;;;;2603703;54;20029;31
2022/01/03 00:56:26;;;;;;;7.65;2.40;;;10.60;99.90;;;;;;2622045;46;20030;31
2022/01/03 00:59:07;;;;;;;5.00;3.00;;;10.60;99.90;;;;;;2603654;54;20022;31
2022/01/03 01:01:47;;;;;;;3.57;2.40;;;10.70;99.90;;;;;;2621796;46;20049;31
2022/01/03 01:04:21;;;;;;;5.43;2.70;;;10.60;99.90;;;;;;2603869;54;20031;31
2022/01/03 01:10:03;;;;;;;5.85;2.20;;;10.60;99.90;;;;;;2603570;54;20030;31
2022/01/03 01:12:51;;;;;;;6.38;2.53;;;10.70;99.90;;;;;;2602898;54;20876;31
2022/01/03 01:18:45;;;;;;;5.05;2.47;;;10.60;99.90;;;;;;2603718;54;19938;31
2022/01/03 01:21:31;;;;;;;4.60;2.60;;;10.60;99.90;;;;;;2603616;54;20105;31
2022/01/03 01:24:10;;;;;;;5.88;2.40;;;10.60;99.90;;;;;;2603830;54;20031;31
2022/01/03 01:29:36;;;;;;;3.95;2.33;;;10.60;99.90;;;;;;2603695;54;20022;31
2022/01/03 01:32:16;;;;;;;5.50;2.63;;;10.60;99.90;;;;;;2604073;54;20057;31
2022/01/03 01:34:49;;;;;;;4.30;2.80;;;10.60;99.90;;;;;;2617002;46;20136;31
2022/01/03 01:46:47;;;;;;;4.22;2.15;;;10.50;99.90;;;;;;2601679;54;20850;31
2022/01/03 01:55:02;;;;;;;5.35;2.08;;;10.50;99.90;;;;;;2617509;46;20231;31
2022/01/03 01:57:52;;;;;;;6.05;2.20;;;10.40;99.90;;;;;;2603570;54;20866;31
2022/01/03 02:00:31;;;;;;;5.00;2.40;;;10.40;99.90;;;;;;2603542;54;21007;31
2022/01/03 02:03:25;;;;;;;3.50;1.95;;;10.40;99.90;;;;;;2618492;46;20023;31
2022/01/03 02:06:24;;;;;;;3.83;2.17;;;10.30;99.90;;;;;;2603554;54;20019;31
2022/01/03 02:11:58;;;;;;;4.65;2.40;;;10.20;99.90;;;;;;2622330;46;19941;31
2022/01/03 02:18:04;;;;;;;3.63;2.40;;;10.10;99.90;;;;;;2632766;54;20030;-94
2022/01/03 02:20:47;;;;;;;4.45;2.58;;;10.10;99.90;;;;;;2603349;54;20867;31
2022/01/03 02:23:31;;;;;;;4.50;2.50;;;10.00;99.90;;;;;;2621134;46;20022;31
2022/01/03 02:26:16;;;;;;;5.35;2.65;;;10.00;99.90;;;;;;2621451;46;20023;31
2022/01/03 02:31:46;;;;;;;5.33;2.50;;;9.90;99.90;;;;;;2603303;54;20097;31
2022/01/03 02:34:29;;;;;;;6.43;3.40;;;9.80;99.90;;;;;;2620243;46;20018;31
2022/01/03 02:37:10;;;;;;;6.00;3.20;;;9.80;99.90;;;;;;2622061;46;20124;31
2022/01/03 02:39:48;;;;;;;6.43;3.42;;;9.70;99.90;;;;;;2603645;54;20033;31
2022/01/03 02:42:26;;;;;;;8.77;3.90;;;9.70;99.90;;;;;;2619717;47;20026;31
2022/01/03 02:45:04;;;;;;;6.13;3.10;;;9.70;99.90;;;;;;2603535;54;20860;31
2022/01/03 02:50:24;;;;;;;6.15;3.10;;;9.60;99.90;;;;;;2618441;46;20032;31
2022/01/03 02:55:49;;;;;;;5.20;3.25;;;9.60;99.90;;;;;;2603513;54;20039;31
2022/01/03 02:58:26;;;;;;;6.63;3.60;;;9.50;99.90;;;;;;2603093;54;20031;31
2022/01/03 03:01:00;;;;;;;6.10;3.63;;;9.60;99.90;;;;;;2702109;39;21004;31
2022/01/03 03:03:50;;;;;;;6.05;3.10;;;9.50;99.90;;;;;;2621188;46;20985;31
2022/01/03 03:06:28;;;;;;;8.20;3.30;;;9.60;99.90;;;;;;2618430;46;20030;31
2022/01/03 03:09:06;;;;;;;6.40;3.70;;;9.50;99.90;;;;;;2603219;54;20245;31
2022/01/03 03:11:56;;;;;;;6.35;3.65;;;9.50;99.90;;;;;;2603441;54;20776;31
2022/01/03 03:14:32;;;;;;;5.63;3.20;;;9.50;99.90;;;;;;2603126;54;20027;31
2022/01/03 03:17:08;;;;;;;7.25;3.80;;;9.50;99.90;;;;;;2603595;54;20033;31
2022/01/03 03:19:54;;;;;;;7.40;3.70;;;9.50;99.90;;;;;;2603241;54;20046;31
2022/01/03 03:22:30;;;;;;;8.47;4.47;;;9.50;99.90;;;;;;2620623;46;20133;31
2022/01/03 03:25:08;;;;;;;6.60;4.10;;;9.50;99.90;;;;;;2603391;54;20029;31
2022/01/03 03:27:47;;;;;;;9.30;4.20;;;9.40;99.90;;;;;;2620914;46;20061;31
2022/01/03 03:30:29;;;;;;;6.88;4.53;;;9.40;99.90;;;;;;2603160;54;20054;31
2022/01/03 03:33:06;;;;;;;6.25;4.07;;;9.40;99.90;;;;;;2604459;46;20092;31
2022/01/03 03:35:44;;;;;;;9.45;4.43;;;9.40;99.90;;;;;;2603277;54;20023;31
2022/01/03 03:38:23;;;;;;;9.00;4.30;;;9.40;99.90;;;;;;2603198;54;20026;31
2022/01/03 03:40:57;;;;;;;9.85;4.90;;;9.30;99.90;;;;;;2603323;54;20088;31
2022/01/03 03:43:38;;;;;;;7.18;3.53;;;9.30;99.90;;;;;;2603216;54;20052;31
2022/01/03 03:46:18;;;;;;;6.53;3.88;;;9.30;99.90;;;;;;2621881;46;20026;31
2022/01/03 03:48:54;;;;;;;8.90;4.45;;;9.30;99.90;;;;;;2603119;54;20769;31
2022/01/03 03:51:34;;;;;;;11.50;4.60;;;9.30;99.90;;;;;;2603209;54;20931;31
2022/01/03 03:54:10;;;;;;;7.13;4.47;;;9.30;99.90;;;;;;2603220;54;20104;31
2022/01/03 03:56:44;;;;;;;8.97;5.43;;;9.30;99.90;;;;;;2718458;39;22442;31
2022/01/03 03:59:24;;;;;;;8.70;4.97;;;9.20;99.90;;;;;;2621372;46;20116;31
2022/01/03 04:02:07;;;;;;;6.97;4.13;;;9.20;99.90;;;;;;2603384;54;20023;31
2022/01/03 04:04:43;;;;;;;11.95;5.05;;;9.20;99.90;;;;;;2620948;46;20022;31
2022/01/03 04:07:19;;;;;;;9.00;5.28;;;9.20;99.90;;;;;;2603162;54;20107;31
2022/01/03 04:09:56;;;;;;;12.27;4.60;;;9.20;99.90;;;;;;2603110;54;20082;31
2022/01/03 04:12:41;;;;;;;10.32;5.53;;;9.20;99.90;;;;;;2603097;54;20061;31
2022/01/03 04:15:19;;;;;;;8.75;4.80;;;9.10;99.90;;;;;;2603013;54;20099;31
2022/01/03 04:17:56;;;;;;;9.32;5.30;;;9.10;99.90;;;;;;2603040;54;20845;31
2022/01/03 04:20:33;;;;;;;9.77;5.50;;;9.20;99.90;;;;;;2603066;54;20045;31
2022/01/03 04:23:05;;;;;;;7.38;5.03;;;9.10;99.90;;;;;;2602939;54;22357;31
2022/01/03 04:25:40;;;;;;;9.40;5.20;;;9.10;99.90;;;;;;2603083;54;20856;31
2022/01/03 04:28:15;;;;;;;9.82;5.03;;;9.10;99.90;;;;;;2602873;54;20027;31
2022/01/03 04:30:55;;;;;;;10.10;5.00;;;9.10;99.90;;;;;;2621165;47;20886;31
2022/01/03 04:33:30;;;;;;;7.82;4.18;;;9.20;99.90;;;;;;2603031;54;20022;31
2022/01/03 04:36:09;;;;;;;7.57;4.20;;;9.10;99.90;;;;;;2602933;54;20922;31
2022/01/03 04:38:45;;;;;;;4.63;3.25;;;9.10;99.90;;;;;;2602758;54;20031;31
2022/01/03 04:41:19;;;;;;;7.33;3.37;;;9.00;99.90;;;;;;2620201;47;20026;31
2022/01/03 04:44:05;;;;;;;4.30;2.80;;;9.00;99.90;;;;;;2602681;54;20093;31
2022/01/03 04:46:45;;;;;;;5.50;3.20;;;9.10;99.90;;;;;;2603132;54;20820;31
2022/01/03 04:49:26;;;;;;;6.55;3.08;;;9.10;99.90;;;;;;2602814;54;20049;31
2022/01/03 04:52:02;;;;;;;5.03;2.50;;;9.10;99.90;;;;;;2620792;47;20018;31
2022/01/03 04:54:43;;;;;;;6.43;2.80;;;9.10;99.90;;;;;;2602965;54;20908;31
2022/01/03 04:57:18;;;;;;;5.55;2.25;;;9.10;99.90;;;;;;2603038;54;20030;31
2022/01/03 04:59:53;;;;;;;4.13;1.73;;;9.10;99.90;;;;;;2603017;54;20022;31
2022/01/03 05:02:32;;;;;;;2.80;1.35;;;9.20;99.90;;;;;;2603014;54;20085;31
2022/01/03 05:07:43;;;;;;;1.38;0.82;;;9.20;99.90;;;;;;2603785;54;20030;31
2022/01/03 05:10:25;;;;;;;3.05;0.80;;;9.30;99.90;;;;;;2603752;54;20077;31
2022/01/03 05:13:02;;;;;;;4.57;0.90;;;9.30;99.90;;;;;;2622208;46;20108;31
2022/01/03 05:15:40;;;;;;;2.30;0.80;;;9.20;99.90;;;;;;2603760;54;20029;31
2022/01/03 05:18:18;;;;;;;2.60;0.57;;;9.40;99.90;;;;;;2622361;46;20264;31
2022/01/03 05:20:53;;;;;;;1.52;0.40;;;9.40;99.90;;;;;;2603717;54;20148;31
2022/01/03 05:23:30;;;;;;;1.80;0.90;;;9.40;99.90;;;;;;2603706;54;20018;31
2022/01/03 05:26:09;;;;;;;2.78;0.65;;;9.40;99.90;;;;;;2603656;54;20025;31
2022/01/03 05:28:45;;;;;;;2.22;0.68;;;9.40;99.90;;;;;;2622204;46;20026;31
2022/01/03 05:31:23;;;;;;;0.57;0.32;;;9.40;99.90;;;;;;2603680;54;20074;31
2022/01/03 05:34:11;;;;;;;2.65;0.60;;;9.50;99.90;;;;;;2603679;54;20992;31
2022/01/03 05:37:08;;;;;;;1.55;0.50;;;9.50;99.90;;;;;;2603673;46;20101;31
2022/01/03 05:39:43;;;;;;;1.70;0.70;;;9.50;99.90;;;;;;2603815;54;20022;31
2022/01/03 05:42:23;;;;;;;1.33;0.60;;;9.50;99.90;;;;;;2603473;54;20054;31
2022/01/03 05:45:06;;;;;;;1.80;0.83;;;9.40;99.90;;;;;;2603391;54;20137;31
2022/01/03 05:47:43;;;;;;;1.48;0.90;;;9.40;99.90;;;;;;2603714;54;20042;31
2022/01/03 05:50:25;;;;;;;1.70;0.60;;;9.50;99.90;;;;;;2603505;54;20034;31
2022/01/03 05:53:07;;;;;;;3.63;0.68;;;9.40;99.90;;;;;;2603458;54;20053;31
2022/01/03 05:55:41;;;;;;;2.38;0.70;;;9.50;99.90;;;;;;2603709;54;20030;31
2022/01/03 05:58:16;;;;;;;1.25;0.57;;;9.50;99.90;;;;;;2603688;54;20081;31
2022/01/03 06:00:50;;;;;;;1.13;0.40;;;9.50;99.90;;;;;;2603773;54;20120;31
2022/01/03 06:03:27;;;;;;;1.05;0.30;;;9.40;99.90;;;;;;2603670;54;19935;31
2022/01/03 06:06:30;;;;;;;2.30;0.40;;;9.50;99.90;;;;;;2603435;54;20038;31
2022/01/03 06:09:13;;;;;;;1.65;0.40;;;9.40;99.90;;;;;;2603685;54;20029;31
2022/01/03 06:11:49;;;;;;;2.83;0.55;;;9.40;99.90;;;;;;2603319;54;20802;31
2022/01/03 06:14:26;;;;;;;4.90;0.57;;;9.40;99.90;;;;;;2621788;46;20026;31
2022/01/03 06:17:03;;;;;;;6.72;0.90;;;9.40;99.90;;;;;;2603294;54;20034;31
2022/01/03 06:19:39;;;;;;;1.55;0.77;;;9.50;99.90;;;;;;2621407;46;20058;31
2022/01/03 06:22:14;;;;;;;2.40;1.00;;;9.40;99.90;;;;;;2622091;46;20030;31
2022/01/03 06:24:56;;;;;;;2.58;1.10;;;9.40;99.90;;;;;;2603757;54;20885;31
2022/01/03 06:27:30;;;;;;;3.38;1.15;;;9.40;99.90;;;;;;2603622;54;20076;31
2022/01/03 06:30:07;;;;;;;6.63;1.13;;;9.50;99.90;;;;;;2603596;54;20022;31
2022/01/03 06:32:48;;;;;;;14.35;1.95;;;9.50;99.90;;;;;;2603408;54;19951;31
2022/01/03 06:35:22;;;;;;;2.13;0.70;;;9.50;99.90;;;;;;2621869;46;20981;31
2022/01/03 06:37:59;;;;;;;3.35;1.20;;;9.50;99.90;;;;;;2603714;54;20088;31
2022/01/03 06:40:37;;;;;;;2.22;0.70;;;9.50;99.90;;;;;;2603369;54;20092;31
2022/01/03 06:43:12;;;;;;;3.85;0.60;;;9.50;99.90;;;;;;2621738;46;20029;31
2022/01/03 06:45:47;;;;;;;3.75;0.70;;;9.50;99.90;;;;;;2603315;54;20803;31
2022/01/03 06:48:21;;;;;;;5.57;0.90;;;9.50;99.90;;;;;;2603521;54;20859;31
2022/01/03 06:50:55;;;;;;;2.53;0.60;;;9.50;99.90;;;;;;2603385;54;20946;31
2022/01/03 06:53:30;;;;;;;1.30;0.50;;;9.50;99.90;;;;;;2603517;54;20033;31
2022/01/03 06:56:11;;;;;;;6.50;0.70;;;9.50;99.90;;;;;;2603601;54;20022;31
2022/01/03 06:58:46;;;;;;;3.60;0.90;;;9.50;99.90;;;;;;2622168;46;20898;31
2022/01/03 07:01:22;;;;;;;3.10;0.80;;;9.50;99.90;;;;;;2603416;54;20026;31
2022/01/03 07:04:00;;;;;;;3.60;1.10;;;9.50;99.90;;;;;;2603139;54;20085;31
2022/01/03 07:06:36;;;;;;;2.60;0.70;;;9.60;99.90;;;;;;2603390;54;20027;31
2022/01/03 07:12:07;;;;;;;4.25;0.82;;;9.50;99.90;;;;;;2603102;54;20077;31
2022/01/03 07:20:49;;;;;;;2.03;0.47;;;9.40;99.90;;;;;;2603423;54;19942;31
2022/01/03 07:23:34;;;;;;;1.77;0.55;;;9.40;99.90;;;;;;2607490;46;19935;31
2022/01/03 07:29:02;;;;;;;3.55;0.90;;;9.50;99.90;;;;;;2603360;54;20042;31
2022/01/03 07:31:42;;;;;;;2.83;0.80;;;9.50;99.90;;;;;;2603292;54;20030;31
2022/01/03 07:34:16;;;;;;;;;;;9.50;99.90;;;;;;2603444;54;20894;31
2022/01/03 07:36:53;;;;;;;4.00;0.40;;;9.50;99.90;;;;;;2603206;54;19934;31
2022/01/03 07:39:30;;;;;;;4.47;0.70;;;9.60;99.90;;;;;;2603184;54;20058;31
2022/01/03 07:42:02;;;;;;;3.95;1.00;;;9.60;99.90;;;;;;2603160;54;21934;31
2022/01/03 07:44:47;;;;;;;4.70;0.80;;;9.60;99.90;;;;;;2603270;54;20038;31
2022/01/03 07:47:21;;;;;;;3.67;0.75;;;9.60;99.90;;;;;;2603387;54;20912;31
2022/01/03 07:49:56;;;;;;;4.97;0.85;;;9.60;99.90;;;;;;2603041;54;20026;31
2022/01/03 07:52:31;;;;;;;4.73;1.10;;;9.60;99.90;;;;;;2603121;54;20026;31
2022/01/03 07:55:07;;;;;;;3.10;0.70;;;9.70;99.90;;;;;;2603057;54;20030;31
2022/01/03 07:57:41;;;;;;;2.30;0.60;;;9.70;99.90;;;;;;2603054;54;20104;31
2022/01/03 08:00:19;;;;;;;3.20;0.55;;;9.70;99.90;;;;;;2603225;54;20855;31
2022/01/03 08:02:54;;;;;;;2.72;0.55;;;9.90;99.90;;;;;;2621676;46;20105;31
2022/01/03 08:05:30;;;;;;;4.95;0.70;;;9.90;99.90;;;;;;2603123;54;20034;31
2022/01/03 08:08:20;;;;;;;2.15;0.68;;;10.00;99.90;;;;;;2603370;54;20026;31
2022/01/03 08:10:57;;;;;;;2.63;0.60;;;10.10;99.90;;;;;;2603294;54;20948;31
2022/01/03 08:13:31;;;;;;;3.80;0.50;;;10.20;99.90;;;;;;2603050;54;20149;31
2022/01/03 08:16:10;;;;;;;5.40;0.60;;;10.20;99.90;;;;;;2603105;54;20037;31
2022/01/03 08:18:45;;;;;;;2.80;0.60;;;10.20;99.90;;;;;;2621603;46;20085;31
2022/01/03 08:21:26;;;;;;;2.53;0.90;;;10.20;99.90;;;;;;2603016;54;19938;31
2022/01/03 08:23:58;;;;;;;1.70;0.50;;;10.20;99.90;;;;;;2603091;54;20246;31
2022/01/03 08:26:34;;;;;;;3.63;0.60;;;10.30;99.90;;;;;;2621491;47;20035;31
2022/01/03 08:29:11;;;;;;;2.80;0.63;;;10.40;99.90;;;;;;2612571;47;20030;31
2022/01/03 08:31:52;;;;;;;4.68;0.80;;;10.50;99.90;;;;;;2603066;54;20962;31
2022/01/03 08:34:32;;;;;;;2.67;0.70;;;10.30;99.90;;;;;;2603020;54;20857;31
2022/01/03 08:37:08;;;;;;;7.23;1.23;;;10.40;99.90;;;;;;2602893;54;20928;31
2022/01/03 08:39:43;;;;;;;2.25;1.00;;;10.30;99.90;;;;;;2621888;46;20068;31
2022/01/03 08:42:18;;;;;;;5.73;1.10;;;10.30;99.90;;;;;;2603767;54;19943;31
2022/01/03 08:44:55;;;;;;;3.03;0.98;;;10.30;99.90;;;;;;2603635;54;20061;31
2022/01/03 08:47:32;;;;;;;5.85;0.73;;;10.30;99.90;;;;;;2622153;46;20022;31
2022/01/03 08:50:09;;;;;;;2.92;0.70;;;10.30;99.90;;;;;;2603752;54;20829;31
2022/01/03 08:52:43;;;;;;;3.00;0.63;;;10.30;99.90;;;;;;2603829;54;20880;31
2022/01/03 08:55:18;;;;;;;2.42;0.55;;;10.30;99.90;;;;;;2603809;54;20919;31
2022/01/03 08:57:53;;;;;;;3.03;1.23;;;10.30;99.90;;;;;;2603680;54;20069;31
2022/01/03 09:00:28;;;;;;;3.50;0.65;;;10.50;99.90;;;;;;2621932;46;20022;31
2022/01/03 09:03:05;;;;;;;3.13;0.70;;;10.60;99.90;;;;;;2603810;54;20069;31
2022/01/03 09:05:40;;;;;;;5.30;1.03;;;10.70;99.90;;;;;;2603845;54;20109;31
2022/01/03 09:08:16;;;;;;;2.85;0.70;;;10.70;99.90;;;;;;2622020;46;21135;31
2022/01/03 09:10:50;;;;;;;;;;;10.70;99.90;;;;;;2622656;46;20050;31
2022/01/03 09:13:28;;;;;;;4.35;0.90;;;10.60;99.90;;;;;;2603363;54;20744;31
2022/01/03 09:16:06;;;;;;;3.90;0.60;;;10.60;99.90;;;;;;2603748;54;20030;31
2022/01/03 09:18:43;;;;;;;5.15;1.02;;;10.50;99.90;;;;;;2603698;54;20036;31
2022/01/03 09:21:19;;;;;;;5.03;0.70;;;10.50;99.90;;;;;;2603672;54;20033;31
2022/01/03 09:24:06;;;;;;;4.47;0.80;;;10.40;99.90;;;;;;2603564;54;20026;31
2022/01/03 09:29:29;;;;;;;3.53;0.70;;;10.40;99.90;;;;;;2603728;54;20033;31
2022/01/03 09:32:03;;;;;;;5.20;1.70;;;10.30;99.90;;;;;;2603822;54;20089;31
2022/01/03 09:34:40;;;;;;;4.50;0.93;;;10.30;99.90;;;;;;2622234;46;20089;31
2022/01/03 09:40:00;;;;;;;5.35;0.93;;;10.30;99.90;;;;;;2603562;54;20053;31
2022/01/03 09:42:35;;;;;;;4.03;1.10;;;10.30;99.90;;;;;;2603693;54;20026;31
2022/01/03 09:45:11;;;;;;;2.00;0.60;;;10.30;99.90;;;;;;2603610;54;19983;31
2022/01/03 09:47:47;;;;;;;6.70;1.10;;;10.30;99.90;;;;;;2603481;54;20805;31
2022/01/03 09:50:26;;;;;;;3.42;0.65;;;10.40;99.90;;;;;;2603608;54;20038;31
2022/01/03 09:53:06;;;;;;;3.55;0.68;;;10.40;99.90;;;;;;2603724;54;20026;31
2022/01/03 09:55:40;;;;;;;4.57;1.13;;;10.40;99.90;;;;;;2603760;54;20035;31
2022/01/03 09:58:15;;;;;;;4.65;0.90;;;10.40;99.90;;;;;;2603540;54;20030;31
2022/01/03 10:00:50;;;;;;;7.15;1.15;;;10.40;99.90;;;;;;2603561;54;20033;31
2022/01/03 10:03:25;;;;;;;5.47;0.90;;;10.40;99.90;;;;;;2603369;54;20132;31
2022/01/03 10:06:04;;;;;;;4.68;0.90;;;10.40;99.90;;;;;;2602664;54;20687;31
2022/01/03 10:08:38;;;;;;;4.05;1.58;;;10.50;99.90;;;;;;2603288;54;20065;31
2022/01/03 10:11:12;;;;;;;5.35;1.30;;;10.50;99.90;;;;;;2621020;46;20936;31
2022/01/03 10:13:47;;;;;;;3.85;1.30;;;10.70;99.90;;;;;;2602841;54;20948;31
2022/01/03 10:16:25;;;;;;;4.73;1.43;;;10.60;99.90;;;;;;2602996;54;20046;31
2022/01/03 10:19:18;;;;;;;3.75;1.00;;;10.70;99.90;;;;;;2623708;39;20888;31
2022/01/03 10:21:56;;;;;;;6.70;1.65;;;10.70;99.90;;;;;;2621413;46;20034;31
2022/01/03 10:24:36;;;;;;;9.43;1.60;;;10.80;99.90;;;;;;2603453;54;20033;31
2022/01/03 10:27:12;;;;;;;3.60;1.10;;;10.70;99.90;;;;;;2603515;54;20725;31
2022/01/03 10:29:47;;;;;;;;;;;10.70;99.90;;;;;;2603718;54;20883;31
2022/01/03 10:32:27;;;;;;;5.35;1.27;;;10.70;99.90;;;;;;2621633;46;19961;31
2022/01/03 10:35:18;;;;;;;6.15;1.30;;;10.60;99.90;;;;;;2767846;31;20038;31
2022/01/03 10:38:01;;;;;;;6.05;1.30;;;10.60;99.90;;;;;;2603614;54;20037;31
2022/01/03 10:40:39;;;;;;;5.90;1.20;;;10.60;99.90;;;;;;2720597;39;21107;31
2022/01/03 10:43:19;;;;;;;6.78;1.10;;;10.60;99.90;;;;;;2622027;46;20916;31
2022/01/03 10:45:57;;;;;;;8.23;1.58;;;10.60;99.90;;;;;;2603480;54;20120;31
2022/01/03 10:48:33;;;;;;;6.00;1.20;;;10.60;99.90;;;;;;2603533;54;20038;31
2022/01/03 10:51:08;;;;;;;6.65;1.60;;;10.60;99.90;;;;;;2603580;54;20030;31
2022/01/03 10:53:46;;;;;;;5.60;1.25;;;10.60;99.90;;;;;;2603392;54;20057;31
2022/01/03 10:56:28;;;;;;;3.10;1.20;;;10.70;99.90;;;;;;2622026;46;20046;31
2022/01/03 10:59:34;;;;;;;4.65;1.50;;;10.60;99.90;;;;;;2621966;46;20022;31
2022/01/03 11:02:11;;;;;;;5.28;1.55;;;10.60;99.90;;;;;;2611123;46;20022;31
2022/01/03 11:04:51;;;;;;;4.50;1.67;;;10.70;99.90;;;;;;2621591;46;20032;31
2022/01/03 11:15:59;;;;;;;4.75;1.30;;;10.70;99.90;;;;;;2603276;54;20027;31
2022/01/03 11:18:36;;;;;;;7.55;1.40;;;10.70;99.90;;;;;;2602791;54;20100;31
2022/01/03 11:21:16;;;;;;;4.90;1.33;;;10.70;99.90;;;;;;2621819;46;20085;31
2022/01/03 11:23:51;;;;;;;5.45;1.35;;;10.70;99.90;;;;;;2621493;46;20100;31
2022/01/03 11:26:33;;;;;;;4.47;1.25;;;10.60;99.90;;;;;;2603532;54;20034;31
2022/01/03 11:29:08;;;;;;;5.73;1.27;;;10.60;99.90;;;;;;2602789;54;20952;31
2022/01/03 11:31:43;;;;;;;6.90;1.75;;;10.60;99.90;;;;;;2620430;46;20970;31
2022/01/03 11:34:25;;;;;;;5.05;1.25;;;10.60;99.90;;;;;;2620343;46;20027;31
2022/01/03 11:37:07;;;;;;;7.60;1.60;;;10.70;99.90;;;;;;2602451;54;20052;31
2022/01/03 11:39:42;;;;;;;5.60;1.10;;;10.80;99.90;;;;;;2602080;54;20034;31
2022/01/03 11:42:21;;;;;;;8.48;1.65;;;10.90;99.90;;;;;;2601852;54;20057;31
2022/01/03 11:44:55;;;;;;;5.15;1.88;;;10.90;99.90;;;;;;2601435;54;20061;31
2022/01/03 11:47:31;;;;;;;11.18;1.90;;;11.00;99.90;;;;;;2620484;46;20898;31
2022/01/03 11:50:07;;;;;;;7.07;1.73;;;11.00;99.90;;;;;;2602048;54;20046;31
2022/01/03 11:52:43;;;;;;;7.18;1.58;;;11.00;99.90;;;;;;2602155;54;20030;31
2022/01/03 11:55:19;;;;;;;7.47;1.33;;;11.00;99.90;;;;;;2602182;54;20891;31
2022/01/03 12:04:00;;;;;;;10.98;1.63;;;10.90;99.90;;;;;;2602540;54;20113;31
2022/01/03 12:06:37;;;;;;;12.20;2.10;;;10.80;99.90;;;;;;2601950;54;20884;31
2022/01/03 12:09:10;;;;;;;8.55;1.23;;;10.70;99.90;;;;;;2605892;39;22413;31
2022/01/03 12:11:52;;;;;;;8.90;1.80;;;10.70;99.90;;;;;;2606155;39;22198;31
2022/01/03 12:14:42;;;;;;;8.95;4.50;;;10.60;99.90;;;;;;2602047;54;20760;31
2022/01/03 12:17:20;;;;;;;10.30;3.40;;;10.60;99.90;;;;;;2602014;54;20026;31
2022/01/03 12:20:05;;;;;;;7.57;3.03;;;10.40;99.90;;;;;;2601944;54;20075;31
2022/01/03 12:22:50;;;;;;;4.65;1.52;;;10.40;99.90;;;;;;2620194;47;20037;31
2022/01/03 12:25:28;;;;;;;10.85;1.95;;;10.40;99.90;;;;;;2601892;54;20050;31
2022/01/03 12:28:07;;;;;;;6.00;1.75;;;10.40;99.90;;;;;;2601784;54;20803;31
2022/01/03 12:30:57;;;;;;;10.10;1.90;;;10.40;99.90;;;;;;2601698;54;20867;31
2022/01/03 12:36:23;;;;;;;7.60;1.40;;;10.40;99.90;;;;;;2602130;54;20845;31
2022/01/03 12:39:10;;;;;;;9.93;2.70;;;10.40;99.90;;;;;;2601938;54;20904;31
2022/01/03 12:41:48;;;;;;;7.13;2.73;;;10.50;99.90;;;;;;2601769;54;20261;31
2022/01/03 12:44:50;;;;;;;7.47;2.27;;;10.40;99.90;;;;;;2602048;54;20078;31
2022/01/03 12:47:28;;;;;;;9.45;3.05;;;10.40;99.90;;;;;;2619883;47;20257;31
2022/01/03 12:50:21;;;;;;;8.18;2.97;;;10.50;99.90;;;;;;2601923;54;20073;31
2022/01/03 12:52:59;;;;;;;7.18;2.13;;;10.50;99.90;;;;;;2601682;54;20930;31
2022/01/03 12:55:53;;;;;;;9.03;2.57;;;10.60;99.90;;;;;;2601846;54;20088;31
2022/01/03 12:59:10;;;;;;;8.70;2.73;;;10.70;99.90;;;;;;2620474;47;21115;31
2022/01/03 13:01:47;;;;;;;8.40;1.70;;;10.80;99.90;;;;;;2609714;47;20131;31
2022/01/03 13:04:28;;;;;;;11.40;2.53;;;10.80;99.90;;;;;;2601750;54;20915;31
2022/01/03 13:07:07;;;;;;;11.00;1.95;;;10.80;99.90;;;;;;2601702;54;20030;31
2022/01/03 13:09:48;;;;;;;6.65;2.00;;;10.90;99.90;;;;;;2601569;54;20110;31
2022/01/03 13:12:23;;;;;;;6.38;1.58;;;10.90;99.90;;;;;;2610791;31;20465;31
2022/01/03 13:15:04;;;;;;;8.45;2.00;;;10.90;99.90;;;;;;2620092;47;20917;31
2022/01/03 13:17:40;;;;;;;8.98;2.20;;;10.90;99.90;;;;;;2601760;54;20046;31
2022/01/03 13:20:20;;;;;;;4.75;1.42;;;10.90;99.90;;;;;;2601993;54;20117;31
2022/01/03 13:22:55;;;;;;;10.63;2.33;;;10.90;99.90;;;;;;2601425;54;19954;31
2022/01/03 13:25:30;;;;;;;3.50;1.05;;;10.90;99.90;;;;;;2602128;54;20077;31
2022/01/03 13:28:15;;;;;;;12.60;2.08;;;10.90;99.90;;;;;;2602461;54;20976;31
2022/01/03 13:30:49;;;;;;;8.13;1.85;;;10.90;99.90;;;;;;2602609;54;20068;31
2022/01/03 13:33:26;;;;;;;8.88;2.08;;;10.90;99.90;;;;;;2620940;46;20046;31
2022/01/03 13:36:08;;;;;;;8.48;1.75;;;10.90;99.90;;;;;;2602476;54;20031;31
2022/01/03 13:38:41;;;;;;;10.43;2.20;;;10.80;99.90;;;;;;2603902;54;20041;31
2022/01/03 13:41:19;;;;;;;9.25;2.22;;;10.80;99.90;;;;;;2603577;54;20029;31
2022/01/03 13:43:59;;;;;;;8.45;1.90;;;10.80;99.90;;;;;;2603668;54;20833;31
2022/01/03 13:49:24;;;;;;;8.30;2.00;;;10.80;99.90;;;;;;2621315;46;20231;31
2022/01/03 13:52:04;;;;;;;10.57;2.10;;;10.80;99.90;;;;;;2603665;54;20026;31
2022/01/03 13:54:43;;;;;;;13.65;2.70;;;10.80;99.90;;;;;;2603828;54;20085;31
2022/01/03 13:57:22;;;;;;;8.50;2.47;;;10.80;99.90;;;;;;2603708;54;20027;31
2022/01/03 14:00:02;;;;;;;6.13;1.70;;;10.70;99.90;;;;;;2603520;54;21069;31
2022/01/03 14:02:38;;;;;;;12.60;1.90;;;10.60;99.90;;;;;;2603623;54;20030;31
2022/01/03 14:05:17;;;;;;;7.30;2.30;;;10.50;99.90;;;;;;2621805;46;19940;31
2022/01/03 14:08:00;;;;;;;11.15;2.85;;;10.50;99.90;;;;;;2603498;54;20030;31
2022/01/03 14:11:03;;;;;;;10.20;3.05;;;10.40;99.90;;;;;;2608876;46;20034;31
2022/01/03 14:13:41;;;;;;;9.15;2.40;;;10.40;99.90;;;;;;2603483;54;20117;31
2022/01/03 14:16:24;;;;;;;8.10;3.22;;;10.30;99.90;;;;;;2603386;54;20117;31
2022/01/03 14:19:02;;;;;;;8.60;2.47;;;10.20;99.90;;;;;;2602617;54;20022;31
2022/01/03 14:21:40;;;;;;;12.82;2.03;;;10.20;99.90;;;;;;2603348;54;20852;31
2022/01/03 14:24:20;;;;;;;10.90;3.15;;;10.10;99.90;;;;;;2603437;54;20832;31
2022/01/03 14:27:00;;;;;;;9.05;2.30;;;10.00;99.90;;;;;;2603495;54;20069;31
2022/01/03 14:29:45;;;;;;;9.80;2.10;;;10.00;99.90;;;;;;2702312;39;21093;31
2022/01/03 14:32:20;;;;;;;8.00;1.90;;;9.90;99.90;;;;;;2603665;54;20085;31
2022/01/03 14:34:57;;;;;;;10.52;3.47;;;9.90;99.90;;;;;;2621652;46;20921;31
2022/01/03 14:37:33;;;;;;;10.25;2.78;;;9.80;99.90;;;;;;2621728;46;20037;31
2022/01/03 14:40:11;;;;;;;6.63;2.13;;;9.80;99.90;;;;;;2603529;54;20026;31
2022/01/03 14:42:45;;;;;;;7.95;2.15;;;9.80;99.90;;;;;;2603432;54;20038;31
2022/01/03 14:45:23;;;;;;;8.38;2.83;;;9.70;99.90;;;;;;2603561;54;20034;31
2022/01/03 14:48:02;;;;;;;7.00;2.03;;;9.70;99.90;;;;;;2603519;54;20924;31
2022/01/03 14:50:38;;;;;;;8.10;1.80;;;9.70;99.90;;;;;;2622079;46;20030;31
2022/01/03 14:53:13;;;;;;;6.57;2.45;;;9.70;99.90;;;;;;2603679;54;20027;31
2022/01/03 14:55:51;;;;;;;11.07;2.93;;;9.60;99.90;;;;;;2603397;54;20937;31
2022/01/03 14:58:25;;;;;;;6.82;2.88;;;9.60;99.90;;;;;;2603419;54;20105;31
2022/01/03 15:00:59;;;;;;;10.60;3.25;;;9.70;99.90;;;;;;2603325;54;20124;31
2022/01/03 15:03:36;;;;;;;9.65;2.88;;;9.70;99.90;;;;;;2603342;54;20065;31
2022/01/03 15:06:10;;;;;;;8.88;2.90;;;9.70;99.90;;;;;;2603673;54;20030;31
2022/01/03 15:08:44;;;;;;;10.35;3.05;;;9.70;99.90;;;;;;2603624;54;20037;31
2022/01/03 15:11:21;;;;;;;15.13;2.90;;;9.70;99.90;;;;;;2603332;54;20128;31
2022/01/03 15:13:55;;;;;;;11.65;3.60;;;9.90;99.90;;;;;;2603338;54;20777;31
2022/01/03 15:16:29;;;;;;;9.75;3.00;;;9.90;99.90;;;;;;2603367;54;20022;31
2022/01/03 15:19:03;;;;;;;12.43;4.22;;;9.90;99.90;;;;;;2622141;46;20833;31
2022/01/03 15:21:38;;;;;;;11.10;3.35;;;9.80;99.90;;;;;;2603412;54;20030;31